Time;durP1;ratioP1;P1;durP2;ratioP2;P2;SDS_P1;SDS_P2;PMS_P1;PMS_P2;Temp;Humidity;BMP_temperature;BMP_pressure;BME280_temperature;BME280_humidity;BME280_pressure;Samples;Min_cycle;Max_cycle;Signal;HPM_P1;HPM_P2
2023/06/11 00:01:49;;;;;;;6.13;4.97;;;25.80;68.80;;;;;;6218537;23;20012;-91
2023/06/11 00:04:19;;;;;;;8.15;5.95;;;25.80;68.90;;;;;;6167428;23;20302;-91
2023/06/11 00:06:47;;;;;;;9.27;5.55;;;25.70;68.60;;;;;;6193181;23;20020;-92
2023/06/11 00:09:16;;;;;;;13.00;6.20;;;25.70;68.80;;;;;;6193113;23;20019;-92
2023/06/11 00:11:54;;;;;;;8.07;5.65;;;25.70;68.60;;;;;;6168864;23;20003;-94
2023/06/11 00:14:23;;;;;;;8.13;5.35;;;25.70;68.90;;;;;;6218169;23;20004;-94
2023/06/11 00:16:56;;;;;;;9.02;5.50;;;25.60;69.00;;;;;;6218228;23;19992;-94
2023/06/11 00:19:28;;;;;;;7.57;5.82;;;25.60;69.30;;;;;;6218163;23;20011;-93
2023/06/11 00:25:15;;;;;;;9.23;5.60;;;25.60;69.50;;;;;;6185804;23;20024;-91
2023/06/11 00:27:41;;;;;;;9.93;5.72;;;25.50;69.40;;;;;;6160390;23;20017;-91
2023/06/11 00:30:13;;;;;;;9.85;5.47;;;25.50;69.30;;;;;;6111519;23;20017;-92
2023/06/11 00:32:42;;;;;;;7.65;5.22;;;25.50;69.50;;;;;;6160514;23;20005;-92
2023/06/11 00:38:34;;;;;;;10.70;6.32;;;25.40;69.60;;;;;;6193252;23;20008;-91
2023/06/11 00:41:14;;;;;;;9.40;6.32;;;25.30;69.80;;;;;;6153707;23;20380;-91
2023/06/11 00:44:06;;;;;;;12.18;6.35;;;25.30;69.80;;;;;;6151855;23;20013;-91
2023/06/11 00:47:02;;;;;;;10.32;6.35;;;25.30;69.80;;;;;;6194013;23;20013;-92
2023/06/11 00:49:37;;;;;;;7.43;6.05;;;25.20;69.90;;;;;;6196233;23;20009;-90
2023/06/11 00:52:03;;;;;;;8.88;5.97;;;25.20;69.90;;;;;;6175565;23;20096;-93
2023/06/11 00:57:53;;;;;;;8.48;6.65;;;25.10;70.50;;;;;;6219938;23;20011;-92
2023/06/11 01:03:52;;;;;;;8.43;5.90;;;25.00;70.80;;;;;;6219124;23;20019;-91
2023/06/11 01:06:28;;;;;;;10.65;6.38;;;25.00;70.70;;;;;;6194987;23;20424;-91
2023/06/11 01:08:57;;;;;;;8.18;6.25;;;24.90;70.80;;;;;;6216659;23;20466;-92
2023/06/11 01:15:14;;;;;;;9.25;6.03;;;24.90;71.30;;;;;;6245269;23;20004;-94
2023/06/11 01:18:28;;;;;;;10.38;6.15;;;24.80;71.30;;;;;;6240088;23;20057;-95
2023/06/11 01:21:18;;;;;;;10.23;6.60;;;24.80;71.30;;;;;;6239629;23;20007;-95
2023/06/11 01:24:21;;;;;;;8.57;6.63;;;24.80;71.80;;;;;;6240118;23;19997;-95
2023/06/11 01:27:27;;;;;;;12.07;7.15;;;24.70;71.70;;;;;;6237105;23;19993;-95
2023/06/11 01:30:01;;;;;;;10.73;6.55;;;24.70;72.10;;;;;;6217778;23;20012;-92
2023/06/11 01:32:27;;;;;;;10.05;6.57;;;24.60;71.70;;;;;;6191732;23;20083;-92
2023/06/11 01:35:27;;;;;;;9.95;6.68;;;24.60;72.10;;;;;;6192065;23;20122;-92
2023/06/11 01:38:21;;;;;;;12.75;6.38;;;24.60;72.30;;;;;;6194278;23;20080;-92
2023/06/11 01:40:58;;;;;;;9.98;7.00;;;24.50;72.70;;;;;;6216410;23;20011;-92
2023/06/11 01:43:25;;;;;;;9.18;6.63;;;24.50;72.70;;;;;;6192757;23;20036;-93
2023/06/11 01:49:27;;;;;;;11.15;7.53;;;24.30;73.10;;;;;;6231804;23;20048;-94
2023/06/11 01:52:07;;;;;;;9.55;7.07;;;24.30;73.20;;;;;;6199179;23;20032;-95
2023/06/11 01:54:33;;;;;;;11.73;7.05;;;24.30;73.50;;;;;;6173464;23;20005;-95
2023/06/11 01:57:04;;;;;;;9.98;7.00;;;24.20;73.70;;;;;;6171945;23;20024;-94
2023/06/11 01:59:46;;;;;;;;;;;;;;;;;;;;;
2023/06/11 02:02:12;;;;;;;8.98;6.72;;;24.20;73.30;;;;;;6194030;23;20083;-92
2023/06/11 02:04:45;;;;;;;9.60;6.90;;;24.20;73.70;;;;;;6193928;23;20031;-93
2023/06/11 02:10:40;;;;;;;13.10;7.80;;;24.10;74.20;;;;;;6244962;23;20067;-94
2023/06/11 02:16:37;;;;;;;8.90;6.95;;;24.00;74.20;;;;;;6244904;23;20040;-95
2023/06/11 02:19:07;;;;;;;11.13;6.78;;;23.90;74.70;;;;;;6202001;23;20012;-92
2023/06/11 02:21:39;;;;;;;12.03;6.77;;;23.90;74.70;;;;;;6191622;23;20001;-92
2023/06/11 02:24:13;;;;;;;9.32;6.93;;;23.90;74.80;;;;;;6191623;23;20013;-93
2023/06/11 02:26:51;;;;;;;7.90;6.55;;;23.90;75.00;;;;;;6191701;23;20001;-93
2023/06/11 02:29:28;;;;;;;12.48;6.70;;;23.80;75.00;;;;;;6167891;23;20016;-93
2023/06/11 02:31:54;;;;;;;8.98;6.90;;;23.80;75.20;;;;;;6166139;23;20005;-92
2023/06/11 02:34:22;;;;;;;8.98;6.88;;;23.70;75.10;;;;;;6141853;23;20011;-90
2023/06/11 02:36:56;;;;;;;11.70;7.88;;;23.70;75.20;;;;;;6167959;23;20005;-90
2023/06/11 02:39:21;;;;;;;11.52;7.07;;;23.70;75.20;;;;;;6190788;23;20084;-90
2023/06/11 02:41:47;;;;;;;10.23;7.20;;;23.70;75.30;;;;;;6190661;23;20075;-90
2023/06/11 02:44:13;;;;;;;10.07;7.10;;;23.60;75.30;;;;;;6166170;23;20032;-90
2023/06/11 02:46:44;;;;;;;8.95;6.80;;;23.60;75.20;;;;;;6190506;23;20032;-90
2023/06/11 02:49:10;;;;;;;8.90;6.95;;;23.60;75.40;;;;;;6190462;23;20017;-90
2023/06/11 02:51:35;;;;;;;8.90;6.88;;;23.60;75.40;;;;;;6169446;23;20015;-93
2023/06/11 02:54:18;;;;;;;9.15;6.82;;;23.50;75.60;;;;;;6196645;23;19993;-94
2023/06/11 02:56:47;;;;;;;10.52;7.10;;;23.50;75.60;;;;;;6177495;23;20009;-95
2023/06/11 03:02:39;;;;;;;11.07;7.35;;;23.40;75.60;;;;;;6227420;23;20092;-93
2023/06/11 03:05:07;;;;;;;9.20;7.30;;;23.40;75.70;;;;;;6202068;23;20004;-95
2023/06/11 03:07:33;;;;;;;8.23;7.03;;;23.40;75.60;;;;;;6183660;23;20072;-93
2023/06/11 03:09:59;;;;;;;9.65;7.68;;;23.30;75.70;;;;;;6190777;23;20001;-91
2023/06/11 03:12:25;;;;;;;11.00;6.95;;;23.30;75.90;;;;;;6165989;23;20036;-92
2023/06/11 03:14:54;;;;;;;8.10;6.70;;;23.30;76.10;;;;;;6165883;23;20004;-91
2023/06/11 03:17:19;;;;;;;9.80;7.28;;;23.20;76.00;;;;;;6165843;23;20076;-91
2023/06/11 03:23:07;;;;;;;9.55;7.50;;;23.20;76.30;;;;;;6217130;23;20047;-92
2023/06/11 03:25:36;;;;;;;8.43;6.95;;;23.10;76.40;;;;;;6167881;23;20004;-95
2023/06/11 03:28:05;;;;;;;8.38;7.20;;;23.10;76.40;;;;;;6144907;23;20173;-95
2023/06/11 03:30:40;;;;;;;9.75;6.68;;;23.10;76.50;;;;;;6168483;23;20431;-95
2023/06/11 03:40:22;;;;;;;9.15;7.00;;;23.00;76.90;;;;;;6217260;23;20011;-91
2023/06/11 03:42:48;;;;;;;10.60;7.30;;;23.00;76.80;;;;;;6190852;23;19996;-92
2023/06/11 03:45:14;;;;;;;8.45;6.90;;;22.90;76.80;;;;;;6166342;23;20015;-92
2023/06/11 03:47:45;;;;;;;8.82;6.97;;;22.90;77.00;;;;;;6141461;23;20083;-92
2023/06/11 03:50:23;;;;;;;9.98;7.18;;;22.90;77.10;;;;;;6142036;23;20013;-92
2023/06/11 03:52:49;;;;;;;11.63;6.53;;;22.80;77.20;;;;;;6190638;23;20054;-92
2023/06/11 03:55:27;;;;;;;9.52;6.95;;;22.80;77.20;;;;;;6165794;23;20008;-92
2023/06/11 03:57:56;;;;;;;9.75;6.40;;;22.80;77.50;;;;;;6142940;23;20401;-89
2023/06/11 04:00:26;;;;;;;9.32;6.68;;;22.80;77.60;;;;;;6166234;23;20008;-89
2023/06/11 04:02:53;;;;;;;10.05;6.93;;;22.70;77.50;;;;;;6165758;23;20019;-90
2023/06/11 04:05:20;;;;;;;9.18;6.30;;;22.70;77.70;;;;;;6191783;23;20015;-90
2023/06/11 04:07:46;;;;;;;8.43;7.15;;;22.70;77.60;;;;;;6192008;23;20009;-90
2023/06/11 04:10:27;;;;;;;8.25;6.78;;;22.70;77.90;;;;;;6144533;23;20442;-89
2023/06/11 04:12:52;;;;;;;8.93;7.63;;;22.70;78.00;;;;;;6167168;23;20018;-90
2023/06/11 04:15:36;;;;;;;9.02;6.90;;;22.60;78.00;;;;;;6173648;23;20040;-93
2023/06/11 04:18:02;;;;;;;11.20;7.40;;;22.60;78.10;;;;;;6197172;23;20028;-95
2023/06/11 04:20:31;;;;;;;9.85;6.50;;;22.60;78.20;;;;;;6199766;23;20004;-93
2023/06/11 04:22:57;;;;;;;9.27;6.85;;;22.60;78.30;;;;;;6198604;23;20028;-94
2023/06/11 04:25:33;;;;;;;11.68;6.75;;;22.60;78.30;;;;;;6198715;23;19996;-93
2023/06/11 04:28:03;;;;;;;8.30;6.80;;;22.60;78.30;;;;;;6175573;23;20000;-95
2023/06/11 04:30:33;;;;;;;10.75;6.47;;;22.60;78.40;;;;;;6200577;23;20103;-94
2023/06/11 04:33:03;;;;;;;10.32;7.43;;;22.60;78.40;;;;;;6167832;23;20028;-89
2023/06/11 04:35:35;;;;;;;8.55;6.72;;;22.60;78.50;;;;;;6192549;23;20033;-90
2023/06/11 04:38:06;;;;;;;8.35;6.85;;;22.50;78.50;;;;;;6167535;23;20371;-90
2023/06/11 04:40:33;;;;;;;8.25;6.40;;;22.50;78.70;;;;;;6167361;23;20016;-90
2023/06/11 04:43:00;;;;;;;10.00;6.78;;;22.50;78.70;;;;;;6143685;23;20008;-91
2023/06/11 04:45:33;;;;;;;8.32;6.82;;;22.50;78.80;;;;;;6167873;23;20462;-90
2023/06/11 04:48:03;;;;;;;8.75;6.53;;;22.50;79.00;;;;;;6192895;23;20055;-92
2023/06/11 04:50:37;;;;;;;13.75;6.88;;;22.50;79.00;;;;;;6192370;23;20373;-94
2023/06/11 04:53:03;;;;;;;11.35;6.63;;;22.50;79.40;;;;;;6169686;23;20317;-92
2023/06/11 04:55:32;;;;;;;8.80;6.93;;;22.50;79.50;;;;;;6168678;23;20063;-92
2023/06/11 04:58:06;;;;;;;10.30;7.28;;;22.50;79.60;;;;;;6168070;23;20001;-92
2023/06/11 05:00:33;;;;;;;8.75;6.40;;;22.50;79.80;;;;;;6168854;23;20008;-92
2023/06/11 05:03:01;;;;;;;9.02;6.50;;;22.50;79.90;;;;;;6192594;23;20013;-92
2023/06/11 05:05:27;;;;;;;8.88;6.82;;;22.50;80.00;;;;;;6168531;23;20024;-91
2023/06/11 05:07:53;;;;;;;9.35;6.85;;;22.50;80.10;;;;;;6191847;23;20096;-90
2023/06/11 05:10:19;;;;;;;9.00;6.97;;;22.50;80.00;;;;;;6143056;23;20056;-92
2023/06/11 05:12:44;;;;;;;8.60;6.75;;;22.50;80.20;;;;;;6168092;23;20001;-92
2023/06/11 05:15:11;;;;;;;8.80;6.75;;;22.50;80.40;;;;;;6145023;23;20009;-92
2023/06/11 05:17:38;;;;;;;8.20;6.45;;;22.50;80.70;;;;;;6193032;23;20028;-92
2023/06/11 05:20:05;;;;;;;9.90;6.72;;;22.50;80.70;;;;;;6170570;23;20015;-92
2023/06/11 05:22:30;;;;;;;9.13;6.82;;;22.50;80.80;;;;;;6143756;23;20009;-92
2023/06/11 05:24:56;;;;;;;7.38;6.60;;;22.60;81.10;;;;;;6167267;23;20375;-92
2023/06/11 05:27:24;;;;;;;8.88;7.38;;;22.50;81.20;;;;;;6142652;23;20043;-91
2023/06/11 05:29:50;;;;;;;10.20;7.30;;;22.60;81.50;;;;;;6143392;23;20012;-91
2023/06/11 05:32:17;;;;;;;9.57;7.25;;;22.60;81.30;;;;;;6143636;23;20024;-92
2023/06/11 05:34:43;;;;;;;8.35;6.70;;;22.60;81.10;;;;;;6168124;23;20032;-93
2023/06/11 05:37:09;;;;;;;8.93;6.82;;;22.60;81.20;;;;;;6142438;23;20012;-92
2023/06/11 05:39:50;;;;;;;8.55;6.25;;;22.60;81.30;;;;;;6142579;23;20038;-92
2023/06/11 05:42:16;;;;;;;9.98;6.68;;;22.60;81.40;;;;;;6167134;23;20008;-92
2023/06/11 05:44:44;;;;;;;9.43;6.70;;;22.60;81.50;;;;;;6142344;23;20092;-92
2023/06/11 05:47:10;;;;;;;9.40;6.32;;;22.70;81.80;;;;;;6191881;23;20015;-92
2023/06/11 05:49:36;;;;;;;10.43;7.03;;;22.70;81.50;;;;;;6191538;23;20016;-92
2023/06/11 05:52:02;;;;;;;10.52;7.18;;;22.70;81.10;;;;;;6167292;23;20008;-92
2023/06/11 05:54:28;;;;;;;8.50;6.40;;;22.70;81.00;;;;;;6192065;23;20290;-91
2023/06/11 05:56:53;;;;;;;9.38;5.95;;;22.70;81.30;;;;;;6142214;23;20487;-90
2023/06/11 05:59:19;;;;;;;8.15;7.07;;;22.70;82.10;;;;;;6166757;23;20089;-90
2023/06/11 06:01:45;;;;;;;9.45;6.70;;;22.80;81.50;;;;;;6141858;23;20036;-90
2023/06/11 06:04:16;;;;;;;10.85;6.75;;;22.80;81.50;;;;;;6141862;23;20327;-91
2023/06/11 06:06:42;;;;;;;10.00;7.18;;;22.80;81.20;;;;;;6167333;23;20040;-90
2023/06/11 06:09:09;;;;;;;8.30;6.00;;;22.80;80.90;;;;;;6191090;23;20012;-90
2023/06/11 06:11:35;;;;;;;8.75;6.53;;;22.90;81.30;;;;;;6166496;23;20008;-93
2023/06/11 06:14:01;;;;;;;7.82;6.45;;;22.90;81.20;;;;;;6166603;23;20008;-93
2023/06/11 06:16:27;;;;;;;7.55;6.53;;;22.90;80.70;;;;;;6141766;23;20028;-93
2023/06/11 06:18:53;;;;;;;8.05;6.40;;;22.90;80.70;;;;;;6166744;23;20005;-93
2023/06/11 06:21:21;;;;;;;8.98;7.20;;;22.90;80.80;;;;;;6166694;23;20064;-93
2023/06/11 06:23:46;;;;;;;9.13;6.78;;;23.00;80.90;;;;;;6166906;23;20005;-94
2023/06/11 06:26:15;;;;;;;8.80;6.50;;;23.00;81.10;;;;;;6191205;23;20078;-93
2023/06/11 06:28:41;;;;;;;8.90;7.15;;;23.00;81.00;;;;;;6154753;23;20004;-90
2023/06/11 06:31:07;;;;;;;10.57;7.03;;;23.10;80.70;;;;;;6168929;23;20000;-90
2023/06/11 06:33:37;;;;;;;6.97;6.03;;;23.10;80.70;;;;;;6159898;23;20039;-91
2023/06/11 06:36:04;;;;;;;8.90;7.03;;;23.20;81.00;;;;;;6166453;23;20008;-90
2023/06/11 06:38:36;;;;;;;7.93;6.22;;;23.20;81.10;;;;;;6141969;23;20032;-90
2023/06/11 06:41:05;;;;;;;7.22;6.40;;;23.20;80.90;;;;;;6141933;23;20083;-90
2023/06/11 06:43:34;;;;;;;8.48;6.85;;;23.30;80.70;;;;;;6191109;23;20012;-91
2023/06/11 06:46:08;;;;;;;11.75;6.05;;;23.40;80.60;;;;;;6191493;23;20039;-93
2023/06/11 06:48:37;;;;;;;9.05;6.43;;;23.40;80.60;;;;;;6166682;23;20012;-92
2023/06/11 06:51:05;;;;;;;7.72;6.22;;;23.40;80.30;;;;;;6236790;23;20034;-92
2023/06/11 06:53:37;;;;;;;11.00;6.60;;;23.50;79.90;;;;;;6243125;22;20010;-92
2023/06/11 06:56:06;;;;;;;9.40;6.25;;;23.50;79.60;;;;;;6218292;23;19996;-92
2023/06/11 06:58:32;;;;;;;8.77;6.50;;;23.50;79.40;;;;;;6193157;23;20026;-92
2023/06/11 07:01:04;;;;;;;8.50;6.03;;;23.60;79.20;;;;;;6242589;23;20000;-93
2023/06/11 07:03:36;;;;;;;9.18;6.40;;;23.60;79.20;;;;;;6220657;23;20079;-91
2023/06/11 07:06:04;;;;;;;8.88;6.57;;;23.70;79.30;;;;;;6196010;23;20004;-93
2023/06/11 07:08:39;;;;;;;9.45;6.30;;;23.70;79.10;;;;;;6195925;23;20011;-93
2023/06/11 07:11:05;;;;;;;8.20;5.50;;;23.80;79.30;;;;;;6196508;23;20008;-93
2023/06/11 07:13:46;;;;;;;12.57;6.03;;;23.90;79.60;;;;;;6195839;23;20362;-93
2023/06/11 07:16:15;;;;;;;9.35;6.35;;;23.90;80.00;;;;;;6196360;23;20012;-93
2023/06/11 07:18:43;;;;;;;9.93;6.13;;;24.00;79.70;;;;;;6172548;23;20054;-94
2023/06/11 07:21:12;;;;;;;10.55;6.10;;;24.00;79.70;;;;;;6223184;23;20000;-94
2023/06/11 07:24:04;;;;;;;8.73;6.07;;;24.10;79.60;;;;;;6221735;23;20328;-95
2023/06/11 07:29:46;;;;;;;9.38;6.05;;;24.20;79.30;;;;;;6156155;23;20068;-94
2023/06/11 07:32:12;;;;;;;8.23;6.18;;;24.30;79.60;;;;;;6186154;23;20012;-94
2023/06/11 07:34:42;;;;;;;9.35;6.65;;;24.30;80.00;;;;;;6172804;23;20088;-94
2023/06/11 07:37:10;;;;;;;8.85;6.47;;;24.40;80.10;;;;;;6172712;23;20077;-94
2023/06/11 07:39:43;;;;;;;9.18;5.80;;;24.50;78.70;;;;;;6171768;23;20008;-94
2023/06/11 07:42:10;;;;;;;9.07;6.45;;;24.50;78.90;;;;;;6220710;23;20026;-94
2023/06/11 07:44:36;;;;;;;8.88;6.43;;;24.50;79.20;;;;;;6195997;23;20095;-93
2023/06/11 07:47:10;;;;;;;9.60;6.28;;;24.60;79.30;;;;;;6171082;23;20012;-93
2023/06/11 07:50:10;;;;;;;9.48;6.38;;;24.70;79.20;;;;;;6190091;23;20090;-93
2023/06/11 07:52:39;;;;;;;11.43;6.15;;;24.70;79.20;;;;;;6175187;23;20008;-94
2023/06/11 07:58:11;;;;;;;9.52;6.13;;;24.80;78.90;;;;;;6193377;23;20027;-93
2023/06/11 08:04:18;;;;;;;10.38;5.78;;;25.00;78.40;;;;;;6217932;23;20016;-93
2023/06/11 08:14:11;;;;;;;;;;;;;;;;;;;;;
2023/06/11 08:16:56;;;;;;;8.32;6.13;;;25.30;79.40;;;;;;6217230;23;20084;-90
2023/06/11 08:19:22;;;;;;;8.18;6.05;;;25.40;78.40;;;;;;6190498;23;20000;-90
2023/06/11 08:22:03;;;;;;;9.85;6.25;;;25.50;78.40;;;;;;6165824;23;20375;-91
2023/06/11 08:24:30;;;;;;;9.45;6.13;;;25.50;78.10;;;;;;6191927;23;20008;-91
2023/06/11 08:26:59;;;;;;;10.35;6.35;;;25.60;78.20;;;;;;6190968;23;20007;-91
2023/06/11 08:29:25;;;;;;;7.03;5.93;;;25.60;78.00;;;;;;6166145;23;20034;-90
2023/06/11 08:31:51;;;;;;;10.30;5.95;;;25.70;77.80;;;;;;6140687;23;20016;-92
2023/06/11 08:34:17;;;;;;;7.68;5.85;;;25.80;77.60;;;;;;6190532;23;20008;-92
2023/06/11 08:36:43;;;;;;;9.90;6.00;;;25.90;77.80;;;;;;6141598;23;20008;-92
2023/06/11 08:39:09;;;;;;;9.18;5.88;;;25.90;77.40;;;;;;6141946;23;20407;-92
2023/06/11 08:41:41;;;;;;;9.75;5.70;;;26.00;77.40;;;;;;6173140;23;20044;-90
2023/06/11 08:44:06;;;;;;;7.50;5.85;;;26.10;77.70;;;;;;6193520;23;20000;-88
2023/06/11 08:46:35;;;;;;;7.55;5.80;;;26.10;76.80;;;;;;6242551;22;20031;-87
2023/06/11 08:49:07;;;;;;;8.80;5.75;;;26.20;76.60;;;;;;6216743;23;20020;-88
2023/06/11 08:51:38;;;;;;;8.25;5.70;;;26.30;76.00;;;;;;6241345;22;20005;-88
2023/06/11 08:54:08;;;;;;;7.95;5.75;;;26.30;75.90;;;;;;6213135;22;19981;-87
2023/06/11 08:56:34;;;;;;;9.77;5.80;;;26.40;76.10;;;;;;6188328;22;20015;-92
2023/06/11 08:59:00;;;;;;;8.98;5.97;;;26.40;76.30;;;;;;6228498;22;19997;-87
2023/06/11 09:01:27;;;;;;;12.57;6.47;;;26.50;76.70;;;;;;6191327;23;20083;-87
2023/06/11 09:03:53;;;;;;;8.90;5.88;;;26.60;76.70;;;;;;6191262;23;20000;-89
2023/06/11 09:06:19;;;;;;;9.40;6.35;;;26.60;76.70;;;;;;6142167;23;20012;-89
2023/06/11 09:09:08;;;;;;;8.32;6.40;;;26.70;76.70;;;;;;6141662;23;20005;-87
2023/06/11 09:11:37;;;;;;;6.20;5.60;;;26.80;75.10;;;;;;6190573;23;20013;-87
2023/06/11 09:14:07;;;;;;;6.80;5.57;;;26.80;75.50;;;;;;6190490;23;20015;-86
2023/06/11 09:16:41;;;;;;;7.63;5.25;;;26.90;76.20;;;;;;6190333;23;20059;-86
2023/06/11 09:19:16;;;;;;;8.70;6.15;;;27.00;75.30;;;;;;6190717;23;20005;-88
2023/06/11 09:21:55;;;;;;;11.40;5.97;;;27.00;75.70;;;;;;6190618;23;20009;-87
2023/06/11 09:24:22;;;;;;;8.40;5.82;;;27.10;75.20;;;;;;6165802;23;20009;-86
2023/06/11 09:26:50;;;;;;;10.18;5.80;;;27.10;74.50;;;;;;6190425;23;20327;-87
2023/06/11 09:29:16;;;;;;;10.35;6.28;;;27.20;74.60;;;;;;6190935;23;20051;-87
2023/06/11 09:31:42;;;;;;;7.00;5.68;;;27.30;74.80;;;;;;6190199;23;20311;-88
2023/06/11 09:34:12;;;;;;;10.35;6.15;;;27.30;74.20;;;;;;6191033;23;20079;-87
2023/06/11 09:36:37;;;;;;;20.98;6.32;;;27.40;73.80;;;;;;6142888;23;20054;-87
2023/06/11 09:39:03;;;;;;;8.90;5.95;;;27.50;73.20;;;;;;6141188;23;20092;-87
2023/06/11 09:41:30;;;;;;;8.00;6.05;;;27.50;73.20;;;;;;6166359;23;20012;-86
2023/06/11 09:43:56;;;;;;;6.43;5.10;;;27.60;72.60;;;;;;6165442;23;20000;-87
2023/06/11 09:46:23;;;;;;;7.72;5.78;;;27.60;73.30;;;;;;6141207;23;20013;-87
2023/06/11 09:48:49;;;;;;;11.10;5.95;;;27.70;73.90;;;;;;6190912;23;20068;-88
2023/06/11 09:51:21;;;;;;;11.18;5.97;;;27.80;73.70;;;;;;6192908;23;20093;-89
2023/06/11 09:53:50;;;;;;;9.55;5.55;;;27.80;73.40;;;;;;6223031;23;20053;-88
2023/06/11 09:56:17;;;;;;;10.98;5.25;;;27.90;73.20;;;;;;6220959;23;20446;-88
2023/06/11 09:58:47;;;;;;;7.00;5.20;;;27.90;72.10;;;;;;6221225;23;19996;-89
2023/06/11 10:01:12;;;;;;;7.05;5.43;;;28.00;72.50;;;;;;6220885;23;20012;-89
2023/06/11 10:03:47;;;;;;;7.50;5.28;;;28.10;73.20;;;;;;6221154;23;20030;-90
2023/06/11 10:06:19;;;;;;;7.38;5.35;;;28.10;73.10;;;;;;6196873;23;20008;-89
2023/06/11 10:08:48;;;;;;;8.48;4.88;;;28.20;73.40;;;;;;6221372;23;20004;-89
2023/06/11 10:11:27;;;;;;;6.17;5.40;;;28.20;73.40;;;;;;6197672;23;20012;-89
2023/06/11 10:13:58;;;;;;;6.00;5.38;;;28.30;73.00;;;;;;6221214;23;20000;-89
2023/06/11 10:16:30;;;;;;;9.48;5.43;;;28.30;72.70;;;;;;6196683;23;20004;-89
2023/06/11 10:19:09;;;;;;;7.47;5.38;;;28.40;71.70;;;;;;6197682;23;20032;-89
2023/06/11 10:21:44;;;;;;;7.82;4.88;;;28.40;71.00;;;;;;6196931;23;20062;-90
2023/06/11 10:24:28;;;;;;;6.45;5.10;;;28.50;70.00;;;;;;6222545;23;20415;-90
2023/06/11 10:27:07;;;;;;;8.15;5.00;;;28.50;68.80;;;;;;6220932;23;20000;-92
2023/06/11 10:29:56;;;;;;;10.85;5.00;;;28.60;68.90;;;;;;6221323;23;20586;-92
2023/06/11 10:32:23;;;;;;;6.90;4.88;;;28.60;68.80;;;;;;6217893;23;20004;-92
2023/06/11 10:35:04;;;;;;;6.45;5.00;;;28.70;68.90;;;;;;6221875;23;20004;-92
2023/06/11 10:37:37;;;;;;;7.45;5.53;;;28.70;67.90;;;;;;6196541;23;20004;-93
2023/06/11 10:40:08;;;;;;;6.13;4.55;;;28.80;67.30;;;;;;6221843;23;20004;-92
2023/06/11 10:42:39;;;;;;;8.52;4.90;;;28.90;67.60;;;;;;6196734;23;20423;-93
2023/06/11 10:45:54;;;;;;;6.25;4.75;;;28.90;66.90;;;;;;6222747;23;20011;-91
2023/06/11 10:48:30;;;;;;;6.22;4.70;;;29.00;66.50;;;;;;6228378;23;20412;-91
2023/06/11 10:51:08;;;;;;;7.15;4.35;;;29.00;66.20;;;;;;6202003;23;20009;-91
2023/06/11 10:53:39;;;;;;;6.45;4.57;;;29.10;66.30;;;;;;6144858;23;20019;-91
2023/06/11 10:56:06;;;;;;;6.82;4.18;;;29.10;65.90;;;;;;6192946;23;19997;-87
2023/06/11 10:58:36;;;;;;;6.85;4.25;;;29.20;66.00;;;;;;6193745;23;20028;-89
2023/06/11 11:01:08;;;;;;;5.22;4.00;;;29.20;65.00;;;;;;6192955;23;20008;-88
2023/06/11 11:03:39;;;;;;;7.72;4.10;;;29.30;64.00;;;;;;6169738;23;20086;-88
2023/06/11 11:06:08;;;;;;;6.05;4.18;;;29.40;64.80;;;;;;6220644;23;20008;-88
2023/06/11 11:08:37;;;;;;;8.67;4.20;;;29.40;65.00;;;;;;6195145;23;20011;-89
2023/06/11 11:11:06;;;;;;;6.72;3.80;;;29.50;64.80;;;;;;6167956;23;20012;-90
2023/06/11 11:13:38;;;;;;;7.65;4.20;;;29.50;64.70;;;;;;6141926;23;20009;-90
2023/06/11 11:16:08;;;;;;;7.65;4.55;;;29.50;64.20;;;;;;6140903;23;20001;-90
2023/06/11 11:18:38;;;;;;;5.43;4.03;;;29.60;62.50;;;;;;6191115;23;20004;-90
2023/06/11 11:21:07;;;;;;;5.18;4.30;;;29.70;62.00;;;;;;6165432;23;20005;-87
2023/06/11 11:23:39;;;;;;;7.28;3.78;;;29.70;61.70;;;;;;6165150;23;20443;-88
2023/06/11 11:26:08;;;;;;;6.82;4.22;;;29.80;60.20;;;;;;6141220;23;20008;-89
2023/06/11 11:28:40;;;;;;;7.13;3.85;;;29.80;59.40;;;;;;6166002;23;20008;-89
2023/06/11 11:31:06;;;;;;;5.78;4.28;;;29.90;58.80;;;;;;6141369;23;20012;-89
2023/06/11 11:33:41;;;;;;;7.10;4.43;;;29.90;58.80;;;;;;6190537;23;20039;-88
2023/06/11 11:36:07;;;;;;;5.38;4.32;;;29.90;59.50;;;;;;6190545;23;20503;-90
2023/06/11 11:38:40;;;;;;;6.05;4.30;;;30.00;60.00;;;;;;6166394;23;20008;-90
2023/06/11 11:41:09;;;;;;;6.32;3.97;;;30.00;60.10;;;;;;6191256;23;20404;-90
2023/06/11 11:43:42;;;;;;;5.60;4.20;;;30.10;60.90;;;;;;6191183;23;20420;-90
2023/06/11 11:46:24;;;;;;;6.47;4.15;;;30.10;60.60;;;;;;6205885;23;19991;-90
2023/06/11 11:48:54;;;;;;;5.93;3.60;;;30.10;59.80;;;;;;6210602;23;20004;-91
2023/06/11 11:51:22;;;;;;;6.95;3.75;;;30.20;59.70;;;;;;6212281;23;20008;-90
2023/06/11 11:53:51;;;;;;;5.32;3.80;;;30.20;59.00;;;;;;6189893;23;20017;-91
2023/06/11 11:56:17;;;;;;;6.28;3.67;;;30.30;58.50;;;;;;6213206;23;20013;-91
2023/06/11 11:58:44;;;;;;;7.47;3.85;;;30.30;58.70;;;;;;6188697;23;20017;-91
2023/06/11 12:01:26;;;;;;;5.63;3.65;;;30.40;58.00;;;;;;6186650;23;20027;-90
2023/06/11 12:04:02;;;;;;;8.13;3.90;;;30.50;58.30;;;;;;6167227;23;20162;-90
2023/06/11 12:06:30;;;;;;;5.63;4.20;;;30.50;58.10;;;;;;6167288;23;20036;-91
2023/06/11 12:08:56;;;;;;;6.25;4.07;;;30.50;57.50;;;;;;6196560;23;20004;-91
2023/06/11 12:11:22;;;;;;;6.30;4.28;;;30.60;57.60;;;;;;6193027;23;20155;-91
2023/06/11 12:13:47;;;;;;;6.97;4.20;;;30.60;56.70;;;;;;6216325;23;20424;-91
2023/06/11 12:16:25;;;;;;;11.20;4.72;;;30.70;57.10;;;;;;6166383;23;20068;-90
2023/06/11 12:18:52;;;;;;;10.45;3.85;;;30.80;55.80;;;;;;6168122;23;20008;-90
2023/06/11 12:21:26;;;;;;;14.70;4.18;;;30.80;56.50;;;;;;6192659;23;20055;-90
2023/06/11 12:23:53;;;;;;;6.03;3.55;;;30.80;57.40;;;;;;6166497;23;20090;-93
2023/06/11 12:26:28;;;;;;;5.50;3.95;;;30.90;57.40;;;;;;6142758;23;20139;-93
2023/06/11 12:28:53;;;;;;;6.10;3.80;;;30.90;56.10;;;;;;6142769;23;20008;-93
2023/06/11 12:31:20;;;;;;;8.02;4.20;;;30.90;55.70;;;;;;6169592;23;20008;-94
2023/06/11 12:33:48;;;;;;;7.00;3.80;;;31.00;54.90;;;;;;6172233;23;20016;-93
2023/06/11 12:36:20;;;;;;;8.25;4.18;;;31.00;53.90;;;;;;6197236;23;20046;-90
2023/06/11 12:38:49;;;;;;;6.57;4.15;;;31.10;54.50;;;;;;6168182;23;20000;-91
2023/06/11 12:41:16;;;;;;;6.63;3.92;;;31.10;53.90;;;;;;6219653;23;20005;-91
2023/06/11 12:43:42;;;;;;;5.68;3.90;;;31.10;51.90;;;;;;6192767;23;20012;-91
2023/06/11 12:46:13;;;;;;;6.95;3.90;;;31.10;51.40;;;;;;6168455;23;20017;-91
2023/06/11 12:48:48;;;;;;;5.78;3.42;;;31.20;52.30;;;;;;6194263;23;20013;-91
2023/06/11 12:51:14;;;;;;;5.85;3.78;;;31.20;53.40;;;;;;6194327;23;20012;-94
2023/06/11 12:53:40;;;;;;;6.57;3.97;;;31.20;53.80;;;;;;6175504;23;20011;-93
2023/06/11 12:56:09;;;;;;;5.22;3.65;;;31.30;54.20;;;;;;6198442;23;20004;-93
2023/06/11 12:59:12;;;;;;;4.72;3.88;;;31.30;53.90;;;;;;6196680;23;20031;-93
2023/06/11 13:01:54;;;;;;;6.75;4.20;;;31.30;53.80;;;;;;6172394;23;20416;-93
2023/06/11 13:04:22;;;;;;;8.70;4.13;;;31.40;54.00;;;;;;6172235;23;20005;-94
2023/06/11 13:06:48;;;;;;;9.70;4.22;;;31.40;53.80;;;;;;6197381;23;20001;-93
2023/06/11 13:09:55;;;;;;;8.90;4.13;;;31.40;52.30;;;;;;6172656;23;20009;-90
2023/06/11 13:12:30;;;;;;;8.35;4.57;;;31.40;52.40;;;;;;6064097;23;20005;-90
2023/06/11 13:18:18;;;;;;;;;;;31.40;52.70;;;;;;6221311;23;20385;-90
2023/06/11 13:20:47;;;;;;;6.60;4.07;;;31.50;53.40;;;;;;6192402;23;19900;-90
2023/06/11 13:23:31;;;;;;;6.25;3.92;;;31.50;54.00;;;;;;6193971;23;20005;-91
2023/06/11 13:26:00;;;;;;;7.05;4.30;;;31.60;54.40;;;;;;6196627;23;20004;-94
2023/06/11 13:28:27;;;;;;;6.22;3.80;;;31.60;53.90;;;;;;6194721;23;20004;-94
2023/06/11 13:31:08;;;;;;;8.65;4.15;;;31.70;53.40;;;;;;6194859;23;20368;-94
2023/06/11 13:33:57;;;;;;;6.10;3.67;;;31.70;52.80;;;;;;6195051;23;20080;-92
2023/06/11 13:36:41;;;;;;;6.07;3.90;;;31.70;53.00;;;;;;6170183;23;20058;-91
2023/06/11 13:39:07;;;;;;;5.50;3.92;;;31.80;54.10;;;;;;6167959;23;20005;-92
2023/06/11 13:41:53;;;;;;;5.43;4.10;;;31.80;53.00;;;;;;6191788;23;20378;-91
2023/06/11 13:44:23;;;;;;;5.35;3.95;;;31.80;51.80;;;;;;6192409;23;20009;-93
2023/06/11 13:46:51;;;;;;;;;;;31.80;51.20;;;;;;6167976;23;20005;-91
2023/06/11 13:49:19;;;;;;;8.75;4.32;;;31.90;50.40;;;;;;6191436;23;19900;-91
2023/06/11 13:51:45;;;;;;;6.18;3.95;;;31.90;50.90;;;;;;6199007;23;20102;-90
2023/06/11 13:54:10;;;;;;;7.70;4.80;;;31.90;51.00;;;;;;6248339;23;20000;-90
2023/06/11 13:56:36;;;;;;;9.35;4.20;;;32.00;51.30;;;;;;6222280;23;20101;-91
2023/06/11 13:59:06;;;;;;;8.25;4.28;;;32.00;51.30;;;;;;6229668;23;20067;-93
2023/06/11 14:04:26;;;;;;;4.72;4.05;;;32.00;51.60;;;;;;6222273;23;20043;-96
2023/06/11 14:06:55;;;;;;;6.40;4.07;;;32.00;50.50;;;;;;6235553;23;20152;-94
2023/06/11 14:09:27;;;;;;;7.95;4.18;;;32.10;50.40;;;;;;6214362;23;19992;-92
2023/06/11 14:11:53;;;;;;;7.65;4.10;;;32.10;50.70;;;;;;6218011;23;20015;-92
2023/06/11 14:14:18;;;;;;;8.18;4.47;;;32.10;49.80;;;;;;6241977;23;19980;-91